Time;durP1;ratioP1;P1;durP2;ratioP2;P2;SDS_P1;SDS_P2;PMS_P1;PMS_P2;Temp;Humidity;BMP_temperature;BMP_pressure;BME280_temperature;BME280_humidity;BME280_pressure;Samples;Min_cycle;Max_cycle;Signal;HPM_P1;HPM_P2
2021/04/16 00:00:35;;;;;;;13.23;5.82;;;;;;;3.77;77.35;102365.06;5074340;28;20091;-69
2021/04/16 00:03:00;;;;;;;11.60;6.22;;;;;;;3.73;77.34;102364.25;5069812;28;20094;-69
2021/04/16 00:05:26;;;;;;;11.55;6.50;;;;;;;3.69;77.61;102357.22;5070625;28;20037;-69
2021/04/16 00:07:52;;;;;;;15.00;7.05;;;;;;;3.66;77.83;102359.88;5070243;28;20032;-69
2021/04/16 00:10:30;;;;;;;10.65;6.38;;;;;;;3.66;77.97;102357.22;5072556;28;20119;-69
2021/04/16 00:12:55;;;;;;;13.68;7.13;;;;;;;3.61;78.07;102354.63;5073805;28;20031;-69
2021/04/16 00:15:25;;;;;;;12.50;6.72;;;;;;;3.63;78.04;102357.28;5075664;28;20485;-69
2021/04/16 00:17:51;;;;;;;13.48;7.22;;;;;;;3.62;77.99;102356.38;5067288;28;20589;-69
2021/04/16 00:20:19;;;;;;;11.57;6.75;;;;;;;3.60;77.92;102363.47;5069944;28;20032;-69
2021/04/16 00:22:45;;;;;;;13.75;7.32;;;;;;;3.59;77.62;102352.88;5070605;28;20032;-69
2021/04/16 00:25:17;;;;;;;12.60;7.07;;;;;;;3.58;77.81;102359.09;5069876;28;20465;-69
2021/04/16 00:27:42;;;;;;;12.52;6.55;;;;;;;3.58;77.70;102353.78;5071620;28;20025;-69
2021/04/16 00:30:09;;;;;;;14.02;7.97;;;;;;;3.59;77.71;102352.88;5069479;28;20507;-68
2021/04/16 00:32:35;;;;;;;12.70;7.55;;;;;;;3.54;77.80;102352.03;5070530;28;20053;-69
2021/04/16 00:35:01;;;;;;;14.02;6.75;;;;;;;3.52;77.84;102345.84;5070372;28;20036;-69
2021/04/16 00:37:26;;;;;;;13.70;7.45;;;;;;;3.50;77.82;102351.19;5069432;28;20033;-69
2021/04/16 00:39:52;;;;;;;12.13;6.93;;;;;;;3.50;77.76;102345.88;5069284;28;20070;-69
2021/04/16 00:42:17;;;;;;;10.88;6.88;;;;;;;3.47;77.94;102342.34;5069618;28;20154;-69
2021/04/16 00:44:43;;;;;;;11.90;6.95;;;;;;;3.40;78.39;102338.88;5070522;28;20021;-69
2021/04/16 00:47:14;;;;;;;14.15;6.60;;;;;;;3.38;78.52;102339.81;5067994;28;20055;-69
2021/04/16 00:49:46;;;;;;;10.60;6.18;;;;;;;3.36;78.63;102330.97;5071957;28;20111;-69
2021/04/16 00:52:16;;;;;;;14.75;6.55;;;;;;;3.34;78.83;102332.75;5070329;28;20043;-69
2021/04/16 00:54:43;;;;;;;10.60;6.75;;;;;;;3.31;79.02;102335.44;5069222;28;20025;-69
2021/04/16 00:57:11;;;;;;;11.00;6.75;;;;;;;3.25;79.28;102337.25;5069344;28;20036;-69
2021/04/16 00:59:42;;;;;;;11.05;6.88;;;;;;;3.18;79.71;102329.34;5072625;28;20029;-69
2021/04/16 01:02:08;;;;;;;12.45;7.30;;;;;;;3.14;79.89;102320.56;5069696;28;20033;-69
2021/04/16 01:04:34;;;;;;;11.75;6.63;;;;;;;3.11;80.08;102320.56;5069499;28;20029;-69
2021/04/16 01:07:02;;;;;;;11.75;7.10;;;;;;;3.05;80.36;102319.72;5069221;28;20040;-69
2021/04/16 01:09:29;;;;;;;10.77;6.05;;;;;;;3.03;80.47;102322.38;5068154;28;20025;-69
2021/04/16 01:11:55;;;;;;;9.60;6.00;;;;;;;3.01;80.38;102313.56;5067022;28;20033;-69
2021/04/16 01:14:22;;;;;;;15.93;6.53;;;;;;;3.00;80.35;102309.16;5067355;28;20028;-68
2021/04/16 01:16:47;;;;;;;13.75;6.28;;;;;;;3.00;80.56;102317.13;5069169;28;20028;-69
2021/04/16 01:19:29;;;;;;;11.40;6.55;;;;;;;2.97;80.79;102317.13;5072520;28;20520;-69
2021/04/16 01:22:02;;;;;;;11.55;6.25;;;;;;;2.95;80.88;102320.69;5074780;28;20029;-69
2021/04/16 01:24:32;;;;;;;10.82;6.60;;;;;;;2.91;81.19;102310.97;5070138;28;20025;-69
2021/04/16 01:26:59;;;;;;;12.95;6.72;;;;;;;2.90;81.25;102309.25;5068006;28;20306;-69
2021/04/16 01:29:26;;;;;;;11.68;6.50;;;;;;;2.88;81.40;102311.91;5072697;28;20064;-69
2021/04/16 01:31:51;;;;;;;11.45;6.88;;;;;;;2.87;81.48;102304.84;5051580;28;20050;-69
2021/04/16 01:34:24;;;;;;;11.20;6.45;;;;;;;2.85;81.72;102311.91;5069537;28;20073;-69
2021/04/16 01:36:56;;;;;;;10.18;6.43;;;;;;;2.84;81.83;102310.16;5071123;28;20028;-69
2021/04/16 01:39:23;;;;;;;14.43;7.32;;;;;;;2.83;81.87;102305.75;5066870;28;20044;-69
2021/04/16 01:41:48;;;;;;;12.65;6.57;;;;;;;2.82;81.80;102307.53;5069411;28;20046;-69
2021/04/16 01:44:19;;;;;;;15.23;7.25;;;;;;;2.81;82.13;102304.88;5068714;28;20373;-69
2021/04/16 01:46:47;;;;;;;11.38;6.70;;;;;;;2.79;82.31;102307.53;5067491;28;20097;-69
2021/04/16 01:49:24;;;;;;;10.45;6.45;;;;;;;2.80;82.44;102305.75;5068849;28;20549;-69
2021/04/16 01:51:50;;;;;;;13.25;6.88;;;;;;;2.77;82.61;102308.47;5068788;28;20041;-69
2021/04/16 01:54:19;;;;;;;12.85;6.68;;;;;;;2.76;82.75;102301.38;5069907;28;20067;-69
2021/04/16 01:56:47;;;;;;;9.57;6.18;;;;;;;2.74;82.69;102303.16;5070247;28;20024;-69
2021/04/16 01:59:22;;;;;;;12.00;6.10;;;;;;;2.73;82.85;102304.03;5066479;28;20036;-69
2021/04/16 02:01:48;;;;;;;10.48;6.20;;;;;;;2.74;82.99;102306.69;5066891;28;20028;-69
2021/04/16 02:04:16;;;;;;;10.75;6.65;;;;;;;2.72;83.13;102296.97;5069272;28;20098;-69
2021/04/16 02:06:42;;;;;;;12.10;6.55;;;;;;;2.71;83.33;102301.44;5067387;28;20031;-69
2021/04/16 02:09:10;;;;;;;13.30;7.00;;;;;;;2.69;83.56;102304.97;5070217;28;20040;-69
2021/04/16 02:11:37;;;;;;;18.58;6.95;;;;;;;2.67;83.60;102298.78;5064638;28;20032;-69
2021/04/16 02:14:18;;;;;;;10.65;6.32;;;;;;;2.65;83.63;102303.25;5071234;28;20028;-69
2021/04/16 02:16:45;;;;;;;15.73;6.45;;;;;;;2.61;84.00;102301.47;5066699;28;20041;-69
2021/04/16 02:19:11;;;;;;;9.95;6.05;;;;;;;2.58;84.27;102294.44;5069259;28;20032;-68
2021/04/16 02:21:37;;;;;;;11.30;6.28;;;;;;;2.58;84.57;102301.50;5068675;28;20021;-69
2021/04/16 02:24:05;;;;;;;10.75;6.18;;;;;;;2.56;84.87;102305.94;5066809;28;20032;-69
2021/04/16 02:26:30;;;;;;;12.20;6.38;;;;;;;2.56;84.86;102295.31;5067302;28;20115;-69
2021/04/16 02:28:55;;;;;;;10.23;6.30;;;;;;;2.56;84.96;102297.97;5069977;28;20502;-68
2021/04/16 02:31:21;;;;;;;10.75;6.57;;;;;;;2.55;85.16;102304.16;5068643;28;20024;-69
2021/04/16 02:33:46;;;;;;;12.60;6.47;;;;;;;2.55;85.29;102306.81;5067068;28;20024;-69
2021/04/16 02:36:12;;;;;;;12.68;7.32;;;;;;;2.56;85.25;102303.28;5072757;28;20039;-69
2021/04/16 02:38:38;;;;;;;12.75;6.93;;;;;;;2.55;85.44;102302.41;5072628;28;20032;-69
2021/04/16 02:41:04;;;;;;;12.45;6.50;;;;;;;2.56;85.48;102301.50;5068176;28;20024;-69
2021/04/16 02:43:31;;;;;;;15.93;6.93;;;;;;;2.57;85.62;102294.44;5084453;28;20031;-69
2021/04/16 02:45:56;;;;;;;16.52;7.30;;;;;;;2.59;85.89;102297.97;5066771;28;20028;-69
2021/04/16 02:48:21;;;;;;;10.98;6.57;;;;;;;2.58;86.09;102297.09;5067458;28;20119;-69
2021/04/16 02:50:48;;;;;;;12.32;6.30;;;;;;;2.58;86.28;102293.56;5068939;28;20051;-69
2021/04/16 02:53:13;;;;;;;12.10;6.28;;;;;;;2.59;86.26;102295.31;5083212;28;20028;-69
2021/04/16 02:55:39;;;;;;;13.02;7.75;;;;;;;2.59;86.18;102298.84;5068281;28;20028;-69
2021/04/16 02:58:04;;;;;;;12.38;7.10;;;;;;;2.59;86.18;102295.31;5067596;28;20122;-69
2021/04/16 03:00:31;;;;;;;17.95;8.45;;;;;;;2.63;86.24;102291.75;5067493;28;20103;-69
2021/04/16 03:02:57;;;;;;;27.67;9.43;;;;;;;2.64;86.61;102290.88;5068197;28;20075;-69
2021/04/16 03:05:23;;;;;;;32.38;13.10;;;;;;;2.67;86.97;102294.38;5068754;28;20032;-68
2021/04/16 03:07:52;;;;;;;42.85;13.75;;;;;;;2.67;87.37;102296.13;5069990;28;20075;-69
2021/04/16 03:10:21;;;;;;;20.52;8.93;;;;;;;2.66;87.50;102291.72;5065939;28;20036;-69
2021/04/16 03:12:47;;;;;;;20.65;8.50;;;;;;;2.66;87.52;102297.00;5071673;28;20198;-69
2021/04/16 03:15:13;;;;;;;19.38;8.60;;;;;;;2.72;87.71;102292.56;5068080;28;20520;-69
2021/04/16 03:17:38;;;;;;;16.77;8.43;;;;;;;2.67;87.65;102285.53;5067638;28;20472;-68
2021/04/16 03:20:06;;;;;;;15.57;6.75;;;;;;;2.66;87.97;102289.06;5082556;28;20073;-69
2021/04/16 03:22:32;;;;;;;15.38;6.70;;;;;;;2.68;87.66;102292.59;5070141;28;20028;-69
2021/04/16 03:24:57;;;;;;;15.95;7.05;;;;;;;2.69;87.89;102278.44;5066754;28;20062;-69
2021/04/16 03:27:23;;;;;;;11.75;7.22;;;;;;;2.74;88.23;102281.94;5069209;28;20503;-69
2021/04/16 03:29:48;;;;;;;10.70;5.95;;;;;;;2.74;88.50;102282.81;5070843;28;20028;-68
2021/04/16 03:32:13;;;;;;;11.80;6.20;;;;;;;2.69;88.52;102279.34;5071678;28;20530;-69
2021/04/16 03:34:39;;;;;;;11.18;6.68;;;;;;;2.74;88.58;102279.28;5072071;28;20036;-69
2021/04/16 03:37:04;;;;;;;11.85;6.15;;;;;;;2.80;88.75;102279.25;5071290;28;20032;-69
2021/04/16 03:39:30;;;;;;;11.70;6.55;;;;;;;2.81;88.89;102291.63;5075025;28;20033;-68
2021/04/16 03:41:55;;;;;;;13.57;6.22;;;;;;;2.81;88.98;102286.31;5071206;28;20039;-69
2021/04/16 03:44:20;;;;;;;10.35;5.72;;;;;;;2.78;89.23;102289.84;5071950;28;20029;-69
2021/04/16 03:46:46;;;;;;;10.90;5.97;;;;;;;2.79;89.39;102293.41;5069922;28;20036;-69
2021/04/16 03:49:11;;;;;;;13.07;5.70;;;;;;;2.79;89.34;102294.28;5075348;28;20025;-69
2021/04/16 03:52:06;;;;;;;12.13;6.55;;;;;;;2.80;89.48;102293.38;5070287;28;20408;-69
2021/04/16 03:54:33;;;;;;;17.73;6.97;;;;;;;2.84;89.49;102296.88;5073782;28;20079;-69
2021/04/16 03:56:59;;;;;;;10.35;5.88;;;;;;;2.85;89.46;102294.22;5069262;28;20093;-69
2021/04/16 03:59:25;;;;;;;11.82;6.78;;;;;;;2.93;89.46;102285.34;5075633;28;20036;-69
2021/04/16 04:01:51;;;;;;;11.52;6.43;;;;;;;2.99;89.44;102291.47;5071326;28;20024;-69
2021/04/16 04:04:18;;;;;;;16.27;7.35;;;;;;;2.99;89.49;102288.81;5071569;28;20095;-69
2021/04/16 04:06:45;;;;;;;11.88;6.45;;;;;;;3.02;89.29;102288.81;5085561;28;20054;-69
2021/04/16 04:09:11;;;;;;;11.57;5.40;;;;;;;3.06;89.44;102287.00;5076299;28;20067;-68
2021/04/16 04:11:36;;;;;;;10.07;5.75;;;;;;;2.98;89.82;102284.41;5071327;28;20416;-69
2021/04/16 04:14:03;;;;;;;9.40;5.97;;;;;;;3.04;89.77;102291.44;5071095;28;20051;-69
2021/04/16 04:16:29;;;;;;;10.52;5.53;;;;;;;3.00;89.55;102295.00;5069982;28;20028;-69
2021/04/16 04:18:55;;;;;;;12.30;6.15;;;;;;;2.96;89.97;102299.47;5073509;28;20465;-69
2021/04/16 04:21:20;;;;;;;16.15;6.40;;;;;;;2.96;89.83;102294.16;5071269;28;20032;-69
2021/04/16 04:23:46;;;;;;;10.88;5.30;;;;;;;2.97;90.19;102300.31;5074076;28;20081;-69
2021/04/16 04:26:11;;;;;;;10.70;5.53;;;;;;;2.97;90.14;102298.56;5068478;28;20036;-69
2021/04/16 04:28:37;;;;;;;10.00;6.03;;;;;;;3.03;90.21;102306.47;5075491;28;20152;-69
2021/04/16 04:31:02;;;;;;;11.10;6.10;;;;;;;3.04;90.00;102300.28;5070029;28;20405;-69
2021/04/16 04:33:28;;;;;;;15.75;6.20;;;;;;;3.04;90.11;102305.59;5071184;28;20028;-69
2021/04/16 04:35:53;;;;;;;13.57;5.60;;;;;;;3.12;89.84;102311.72;5069482;28;20058;-69
2021/04/16 04:38:19;;;;;;;18.58;5.93;;;;;;;3.20;89.37;102315.19;5069594;28;20075;-69
2021/04/16 04:40:45;;;;;;;10.32;5.70;;;;;;;3.08;89.63;102304.69;5088279;23;20074;-75
2021/04/16 04:43:11;;;;;;;14.45;6.22;;;;;;;3.13;89.70;102307.28;5081186;28;20047;-75
2021/04/16 04:45:36;;;;;;;13.00;5.63;;;;;;;3.11;89.70;102303.75;5066750;28;20486;-75
2021/04/16 04:48:02;;;;;;;13.98;6.78;;;;;;;3.14;89.51;102299.31;5065276;28;20036;-75
2021/04/16 04:50:28;;;;;;;14.32;6.05;;;;;;;3.15;89.86;102301.06;5064855;28;20028;-74
2021/04/16 04:52:55;;;;;;;10.68;5.93;;;;;;;3.24;89.92;102293.03;5048169;28;20047;-75
2021/04/16 04:55:28;;;;;;;17.83;6.60;;;;;;;3.24;89.83;102294.81;5047688;28;20033;-78
2021/04/16 04:57:53;;;;;;;;;;;;;;;3.27;89.69;102299.22;5063260;28;20526;-78
2021/04/16 05:00:19;;;;;;;11.35;6.15;;;;;;;3.23;90.10;102296.56;5062737;28;19965;-78
2021/04/16 05:02:45;;;;;;;15.13;6.20;;;;;;;3.27;90.31;102291.25;5064621;28;20033;-78
2021/04/16 05:05:13;;;;;;;13.98;6.32;;;;;;;3.32;90.50;102292.97;5063680;28;20044;-78
2021/04/16 05:07:38;;;;;;;14.60;6.43;;;;;;;3.25;90.98;102297.44;5045899;28;20559;-77
2021/04/16 05:10:06;;;;;;;16.40;6.20;;;;;;;3.33;90.55;102297.38;5063016;28;20043;-77
2021/04/16 05:12:31;;;;;;;12.63;6.53;;;;;;;3.30;90.60;102296.53;5065268;28;20047;-78
2021/04/16 05:14:57;;;;;;;14.57;6.40;;;;;;;3.34;90.48;102298.25;5073193;28;20036;-78
2021/04/16 05:17:22;;;;;;;19.63;6.45;;;;;;;3.41;90.17;102306.13;5063398;28;20024;-78
2021/04/16 05:19:48;;;;;;;14.10;6.47;;;;;;;3.38;89.58;102308.84;5063468;28;20036;-77
2021/04/16 05:22:15;;;;;;;16.35;6.82;;;;;;;3.45;89.72;102320.28;5050381;28;20032;-78
2021/04/16 05:24:40;;;;;;;12.20;6.60;;;;;;;3.47;88.46;102315.81;5061053;28;20128;-78
2021/04/16 05:27:09;;;;;;;12.82;6.03;;;;;;;3.45;88.79;102320.28;5049968;28;20038;-77
2021/04/16 05:29:35;;;;;;;16.27;7.05;;;;;;;3.49;88.29;102316.69;5066217;28;20051;-78
2021/04/16 05:32:00;;;;;;;16.05;7.20;;;;;;;3.42;88.85;102314.97;5060937;28;20041;-78
2021/04/16 05:34:26;;;;;;;13.38;6.55;;;;;;;3.50;88.70;102321.09;5059779;28;20028;-77
2021/04/16 05:36:52;;;;;;;13.25;6.90;;;;;;;3.51;88.98;102313.13;5062183;28;20032;-78
2021/04/16 05:39:18;;;;;;;15.13;6.85;;;;;;;3.55;89.45;102313.97;5063702;28;20648;-76
2021/04/16 05:41:44;;;;;;;14.85;6.70;;;;;;;3.73;88.11;102321.75;5062353;28;20500;-77
2021/04/16 05:44:10;;;;;;;13.77;7.15;;;;;;;3.69;88.24;102314.72;5066487;28;20132;-78
2021/04/16 05:46:36;;;;;;;15.90;7.00;;;;;;;3.69;88.24;102313.84;5063194;28;20115;-77
2021/04/16 05:49:01;;;;;;;12.98;6.25;;;;;;;3.78;87.98;102311.94;5063919;28;20037;-78
2021/04/16 05:51:27;;;;;;;15.93;6.82;;;;;;;3.79;88.28;102315.50;5059041;28;20040;-77
2021/04/16 05:53:52;;;;;;;18.83;7.93;;;;;;;3.85;88.60;102310.09;5059192;28;20032;-77
2021/04/16 05:56:18;;;;;;;14.05;7.50;;;;;;;3.88;88.80;102321.59;5077056;28;20036;-77
2021/04/16 05:58:44;;;;;;;13.48;7.03;;;;;;;3.98;88.44;102317.03;5066625;28;20033;-76
2021/04/16 06:01:09;;;;;;;16.38;9.15;;;;;;;4.08;88.36;102313.38;5063393;28;20051;-78
2021/04/16 06:03:36;;;;;;;15.75;7.30;;;;;;;4.19;88.43;102311.50;5062897;28;20048;-77
2021/04/16 06:06:02;;;;;;;14.02;6.88;;;;;;;4.25;88.48;102316.72;5063189;28;20050;-78
2021/04/16 06:08:28;;;;;;;22.23;7.03;;;;;;;4.33;88.15;102319.25;5060012;28;20490;-77
2021/04/16 06:10:56;;;;;;;17.13;7.53;;;;;;;4.38;88.35;102317.44;5065042;28;20039;-78
2021/04/16 06:13:22;;;;;;;14.27;6.75;;;;;;;4.50;87.44;102317.28;5066321;28;20090;-78
2021/04/16 06:15:48;;;;;;;19.17;7.68;;;;;;;4.57;86.54;102318.91;5066812;28;20052;-77
2021/04/16 06:18:13;;;;;;;16.48;7.20;;;;;;;4.62;86.38;102319.75;5063505;28;20067;-78
2021/04/16 06:20:39;;;;;;;17.05;8.10;;;;;;;4.78;86.45;102323.94;5062349;28;20032;-76
2021/04/16 06:23:04;;;;;;;17.17;7.82;;;;;;;4.79;84.49;102328.38;5048993;28;20394;-77
2021/04/16 06:25:33;;;;;;;18.05;7.32;;;;;;;4.80;84.59;102322.16;5066098;28;20513;-78
2021/04/16 06:27:59;;;;;;;17.40;7.72;;;;;;;4.91;84.98;102324.63;5080828;28;20577;-77
2021/04/16 06:30:25;;;;;;;15.23;7.45;;;;;;;4.99;85.32;102332.50;5061924;28;20471;-77
2021/04/16 06:33:03;;;;;;;20.35;7.45;;;;;;;5.21;84.92;102325.94;5079952;28;20209;-77
2021/04/16 06:35:29;;;;;;;19.55;7.65;;;;;;;5.22;84.36;102314.38;5045822;28;20036;-76
2021/04/16 06:37:54;;;;;;;16.40;6.47;;;;;;;5.33;84.17;102324.84;5060540;28;20032;-77
2021/04/16 06:40:20;;;;;;;22.63;8.38;;;;;;;5.53;81.63;102326.25;5066477;28;20465;-78
2021/04/16 06:42:46;;;;;;;15.90;7.65;;;;;;;5.67;79.67;102323.34;5063584;28;20676;-76
2021/04/16 06:45:27;;;;;;;19.63;8.68;;;;;;;5.66;79.32;102319.81;5062163;28;20459;-76
2021/04/16 06:48:03;;;;;;;14.30;7.72;;;;;;;5.75;79.39;102312.53;5059260;28;20053;-77
2021/04/16 06:50:36;;;;;;;20.23;7.82;;;;;;;5.98;79.50;102311.25;5066522;28;20554;-77
2021/04/16 06:53:15;;;;;;;;;;;;;;;6.18;78.46;102308.13;5067235;28;20138;-76
2021/04/16 06:55:54;;;;;;;17.83;7.60;;;;;;;6.51;78.35;102314.53;5069463;28;20335;-77
2021/04/16 06:58:27;;;;;;;13.35;6.78;;;;;;;6.91;75.69;102319.88;5072882;28;20485;-77
2021/04/16 07:01:06;;;;;;;15.13;6.88;;;;;;;7.56;73.49;102306.63;5073202;28;20055;-78
2021/04/16 07:03:44;;;;;;;14.23;7.20;;;;;;;8.17;69.42;102310.28;5061474;28;20089;-77
2021/04/16 07:06:18;;;;;;;22.17;7.32;;;;;;;8.35;69.70;102313.31;5070846;28;20137;-77
2021/04/16 07:08:51;;;;;;;23.27;8.80;;;;;;;8.03;70.78;102310.66;5072263;28;20576;-77
2021/04/16 07:11:21;;;;;;;16.38;7.10;;;;;;;7.73;71.49;102315.06;5066083;28;20031;-77
2021/04/16 07:13:47;;;;;;;16.08;7.20;;;;;;;7.45;71.81;102322.09;5045823;28;20070;-78
2021/04/16 07:16:12;;;;;;;16.17;7.00;;;;;;;7.26;73.82;102327.88;5069146;28;20037;-78
2021/04/16 07:18:42;;;;;;;12.65;6.68;;;;;;;7.21;73.10;102320.91;5050015;28;20043;-78
2021/04/16 07:21:09;;;;;;;15.02;6.95;;;;;;;7.40;72.73;102324.00;5066902;28;20070;-78
2021/04/16 07:23:55;;;;;;;18.02;6.97;;;;;;;8.32;70.17;102328.59;5050396;28;20119;-77
2021/04/16 07:26:42;;;;;;;18.27;6.78;;;;;;;9.51;63.35;102339.94;5067173;28;20134;-78
2021/04/16 07:29:10;;;;;;;13.02;7.30;;;;;;;10.00;61.29;102338.22;5073356;28;20045;-77
2021/04/16 07:31:53;;;;;;;14.93;6.93;;;;;;;10.58;58.06;102338.75;5066168;28;20028;-77
2021/04/16 07:34:28;;;;;;;14.70;6.15;;;;;;;10.63;59.93;102347.50;5063228;28;20032;-77
2021/04/16 07:37:05;;;;;;;14.75;6.55;;;;;;;10.38;58.31;102337.72;5063939;28;20505;-78
2021/04/16 07:39:34;;;;;;;14.15;6.28;;;;;;;10.78;58.61;102355.00;5062690;28;20024;-78
2021/04/16 07:42:09;;;;;;;10.82;6.20;;;;;;;11.50;55.83;102352.94;5050217;28;20449;-78
2021/04/16 07:44:39;;;;;;;15.10;5.85;;;;;;;11.88;53.30;102349.50;5069899;28;20032;-77
2021/04/16 07:47:15;;;;;;;16.63;5.97;;;;;;;12.43;51.54;102349.72;5069641;28;20043;-76
2021/04/16 07:50:03;;;;;;;12.25;6.38;;;;;;;12.67;50.74;102343.19;5062517;28;20032;-77
2021/04/16 07:52:39;;;;;;;10.02;5.43;;;;;;;12.77;48.96;102358.00;5076285;28;20044;-77
2021/04/16 07:55:30;;;;;;;11.98;5.80;;;;;;;13.09;48.11;102350.16;5065809;28;20037;-77
2021/04/16 07:58:25;;;;;;;11.10;6.03;;;;;;;13.43;47.58;102344.88;5062278;28;20107;-77
2021/04/16 08:00:51;;;;;;;11.32;5.90;;;;;;;13.51;47.13;102344.50;5063559;28;20044;-77
2021/04/16 08:03:20;;;;;;;12.27;5.60;;;;;;;13.67;46.23;102340.94;5069730;28;20464;-78
2021/04/16 08:05:54;;;;;;;12.90;5.82;;;;;;;13.80;46.63;102340.28;5072361;28;20050;-78
2021/04/16 08:08:30;;;;;;;13.82;5.50;;;;;;;13.86;44.93;102335.44;5059458;28;20101;-78
2021/04/16 08:11:14;;;;;;;11.63;5.13;;;;;;;14.07;44.93;102344.25;5062521;28;20036;-78
2021/04/16 08:13:43;;;;;;;10.35;5.53;;;;;;;14.32;42.72;102339.25;5082734;28;20043;-78
2021/04/16 08:16:27;;;;;;;10.50;5.45;;;;;;;14.13;43.41;102343.94;5066526;28;20032;-77
2021/04/16 08:18:56;;;;;;;12.82;5.90;;;;;;;13.91;42.71;102340.59;5045540;28;20028;-77
2021/04/16 08:21:24;;;;;;;11.05;5.10;;;;;;;14.51;41.95;102340.03;5065078;28;20090;-77
2021/04/16 08:23:55;;;;;;;10.88;4.80;;;;;;;14.89;43.81;102339.72;5062446;28;20051;-77
2021/04/16 08:26:24;;;;;;;11.45;5.53;;;;;;;14.93;42.20;102335.91;5065234;28;20043;-77
2021/04/16 08:28:53;;;;;;;8.35;4.57;;;;;;;15.05;41.65;102332.50;5068302;28;20029;-78
2021/04/16 08:31:43;;;;;;;9.07;5.07;;;;;;;15.12;40.42;102331.16;5066066;28;20044;-77
2021/04/16 08:34:13;;;;;;;10.90;4.70;;;;;;;15.31;39.67;102331.84;5084362;28;20519;-77
2021/04/16 08:36:41;;;;;;;10.63;5.15;;;;;;;15.51;37.91;102329.78;5064035;28;20028;-77
2021/04/16 08:39:29;;;;;;;10.10;5.47;;;;;;;15.64;39.56;102333.56;5069437;28;20032;-76
2021/04/16 08:42:12;;;;;;;10.80;5.25;;;;;;;15.72;37.93;102332.16;5081835;28;20687;-76
2021/04/16 08:44:41;;;;;;;10.48;5.53;;;;;;;15.61;36.58;102336.47;5070981;28;20054;-77
2021/04/16 08:47:23;;;;;;;19.95;6.47;;;;;;;15.35;38.41;102328.00;5062254;28;20056;-77
2021/04/16 08:49:52;;;;;;;10.00;5.85;;;;;;;15.32;39.15;102336.28;5065406;28;20071;-78
2021/04/16 08:52:34;;;;;;;9.32;5.53;;;;;;;15.12;39.34;102331.16;5068003;28;20031;-76
2021/04/16 08:55:39;;;;;;;12.85;5.15;;;;;;;15.01;38.90;102333.63;5064280;28;20064;-78
2021/04/16 08:58:28;;;;;;;9.77;5.57;;;;;;;14.98;41.32;102333.81;5019650;28;20037;-78
2021/04/16 09:00:56;;;;;;;14.20;4.13;;;;;;;15.19;39.84;102332.56;5026157;28;20052;-77
2021/04/16 09:03:26;;;;;;;8.07;4.82;;;;;;;15.19;39.37;102332.56;5060395;28;20052;-77
2021/04/16 09:06:03;;;;;;;7.88;4.30;;;;;;;14.72;39.27;102326.28;5081563;28;20032;-76
2021/04/16 09:08:45;;;;;;;10.35;3.90;;;;;;;14.62;39.45;102315.13;5064565;28;20478;-78
2021/04/16 09:11:13;;;;;;;7.70;3.67;;;;;;;15.10;38.20;102329.53;5064598;28;20486;-77
2021/04/16 09:13:38;;;;;;;7.78;3.90;;;;;;;14.80;39.82;102314.09;5063416;28;20036;-77
2021/04/16 09:16:16;;;;;;;10.85;4.45;;;;;;;14.97;38.53;102315.84;5068427;28;20213;-77
2021/04/16 09:18:46;;;;;;;11.25;4.93;;;;;;;14.96;41.44;102312.25;5074979;28;20032;-78
2021/04/16 09:21:14;;;;;;;6.35;3.58;;;;;;;15.07;38.32;102317.03;5065240;28;20032;-77
2021/04/16 09:23:40;;;;;;;8.45;3.50;;;;;;;14.82;37.08;102319.41;5064984;28;20465;-77
2021/04/16 09:26:07;;;;;;;11.10;3.78;;;;;;;14.66;36.02;102313.13;5064195;28;20038;-78
2021/04/16 09:28:54;;;;;;;6.95;3.25;;;;;;;14.44;36.72;102322.41;5065171;28;20047;-78
2021/04/16 09:31:23;;;;;;;8.10;3.17;;;;;;;13.93;37.85;102314.41;5043239;28;20035;-78
2021/04/16 09:34:19;;;;;;;4.68;3.00;;;;;;;13.98;42.01;102305.09;5066755;28;20032;-78
2021/04/16 09:36:48;;;;;;;5.70;3.55;;;;;;;14.11;39.29;102313.41;5063904;28;20283;-78
2021/04/16 09:39:31;;;;;;;8.05;3.92;;;;;;;14.39;42.02;102305.59;5065592;28;20585;-78
2021/04/16 09:41:56;;;;;;;5.70;2.70;;;;;;;14.58;35.11;102313.53;5077151;28;20036;-77
2021/04/16 09:44:28;;;;;;;5.55;2.45;;;;;;;14.61;33.41;102309.81;5062268;28;20037;-78
2021/04/16 09:46:55;;;;;;;6.85;3.75;;;;;;;14.57;35.39;102311.78;5078006;28;20033;-77
2021/04/16 09:49:23;;;;;;;6.40;3.60;;;;;;;14.34;36.32;102299.53;5064938;28;20043;-77
2021/04/16 09:51:51;;;;;;;6.60;3.10;;;;;;;14.42;36.35;102297.31;5068273;28;20028;-77
2021/04/16 09:54:16;;;;;;;5.32;2.97;;;;;;;14.56;36.29;102308.22;5065033;28;20068;-77
2021/04/16 09:57:00;;;;;;;5.45;2.85;;;;;;;14.54;34.88;102307.44;5077881;28;20020;-77
2021/04/16 09:59:37;;;;;;;4.82;2.45;;;;;;;14.36;35.11;102302.16;5063134;28;20028;-77
2021/04/16 10:02:17;;;;;;;5.28;2.60;;;;;;;14.58;36.32;102292.78;5067539;28;20040;-77
2021/04/16 10:05:10;;;;;;;7.57;2.85;;;;;;;14.55;34.26;102298.38;5063027;28;20032;-77
2021/04/16 10:07:50;;;;;;;5.05;2.05;;;;;;;14.72;36.17;102289.31;5080447;28;20032;-78
2021/04/16 10:10:37;;;;;;;9.75;2.75;;;;;;;14.45;35.58;102297.13;5066615;28;20032;-77
2021/04/16 10:13:28;;;;;;;4.50;2.47;;;;;;;14.19;33.45;102295.00;5043855;28;20044;-78
2021/04/16 10:15:57;;;;;;;6.13;2.42;;;;;;;14.06;35.51;102289.38;5060518;28;20401;-78
2021/04/16 10:18:33;;;;;;;3.65;2.78;;;;;;;13.95;35.61;102290.91;5063195;28;20445;-77
2021/04/16 10:21:20;;;;;;;3.47;2.28;;;;;;;14.35;33.95;102285.06;5061906;28;20509;-78
2021/04/16 10:23:51;;;;;;;7.18;2.60;;;;;;;14.75;35.10;102286.44;5074198;28;20558;-77
2021/04/16 10:36:19;;;;;;;6.15;3.17;;;;;;;13.51;39.37;102280.63;5065783;28;20059;-78
2021/04/16 11:05:58;;;;;;;6.20;2.53;;;;;;;13.51;36.86;102253.66;5064385;28;20486;-73
2021/04/16 12:38:25;;;;;;;4.25;2.03;;;;;;;14.30;31.83;102189.91;5064022;28;20060;-74
2021/04/16 12:40:51;;;;;;;3.45;2.00;;;;;;;14.37;32.09;102177.84;5062253;28;20619;-74
2021/04/16 12:43:17;;;;;;;6.30;2.17;;;;;;;14.53;33.22;102186.81;5074702;28;20516;-73
2021/04/16 12:45:43;;;;;;;4.25;2.03;;;;;;;14.91;32.63;102179.16;5071012;28;20057;-74
2021/04/16 12:48:08;;;;;;;2.95;1.60;;;;;;;15.08;30.97;102186.25;5063634;28;20105;-74
2021/04/16 12:50:34;;;;;;;4.60;1.90;;;;;;;15.03;32.20;102174.84;5064921;28;20035;-74
2021/04/16 12:53:00;;;;;;;4.75;1.85;;;;;;;15.35;30.11;102181.91;5069741;28;20435;-73
2021/04/16 12:55:26;;;;;;;36.92;3.45;;;;;;;15.25;29.40;102177.13;5068886;28;20035;-73
2021/04/16 12:57:55;;;;;;;4.93;2.13;;;;;;;15.28;31.06;102161.59;5072654;28;20430;-74
2021/04/16 13:00:25;;;;;;;6.80;2.40;;;;;;;15.36;30.35;102167.41;5061423;28;20579;-74
2021/04/16 13:02:59;;;;;;;4.28;1.85;;;;;;;15.48;30.58;102173.03;5082723;28;20040;-75
2021/04/16 13:05:25;;;;;;;6.50;1.95;;;;;;;15.21;30.71;102179.16;5064848;28;20035;-74
2021/04/16 13:07:51;;;;;;;4.20;2.22;;;;;;;15.29;29.48;102174.16;5061461;28;20511;-74
2021/04/16 13:10:18;;;;;;;3.13;2.05;;;;;;;15.28;29.43;102163.41;5062602;28;20039;-74
2021/04/16 13:12:44;;;;;;;3.65;1.80;;;;;;;15.17;30.64;102166.78;5060926;28;20074;-74
2021/04/16 13:15:10;;;;;;;4.25;1.90;;;;;;;15.43;30.05;102161.63;5058285;28;20037;-73
2021/04/16 13:17:41;;;;;;;6.00;1.70;;;;;;;15.50;30.38;102162.97;5063247;28;20036;-74
2021/04/16 13:20:08;;;;;;;3.63;1.60;;;;;;;15.26;33.17;102152.69;5066633;28;20046;-74
2021/04/16 13:22:33;;;;;;;5.43;1.77;;;;;;;15.54;31.41;102151.03;5066121;28;20032;-73
2021/04/16 13:24:59;;;;;;;6.70;2.50;;;;;;;15.61;31.96;102153.25;5063331;28;20039;-74
2021/04/16 13:27:28;;;;;;;4.97;2.33;;;;;;;15.48;30.19;102160.38;5061895;28;20425;-74
2021/04/16 13:29:54;;;;;;;11.00;2.47;;;;;;;15.54;31.97;102151.03;5066251;28;20039;-74
2021/04/16 13:32:23;;;;;;;3.28;2.67;;;;;;;15.56;31.72;102149.94;5064826;28;20498;-74
2021/04/16 13:34:52;;;;;;;5.60;2.58;;;;;;;15.50;31.18;102158.41;5063602;28;20029;-74
2021/04/16 13:37:19;;;;;;;6.13;2.75;;;;;;;15.18;30.91;102149.56;5061431;28;20494;-74
2021/04/16 13:39:46;;;;;;;4.88;2.10;;;;;;;15.25;31.49;102152.78;5061978;28;20109;-74
2021/04/16 13:42:12;;;;;;;4.45;2.30;;;;;;;15.16;30.32;102131.72;5065779;28;20032;-74